sensor_id;sensor_type;location;lat;lon;timestamp;P1;durP1;ratioP1;P2;durP2;ratioP2
25467;SDS011;13384;24.794;110.498;2022-12-20T00:00:33;21.23;;;12.23;;
25467;SDS011;13384;24.794;110.498;2022-12-20T00:03:04;21.10;;;11.15;;
25467;SDS011;13384;24.794;110.498;2022-12-20T00:05:35;19.15;;;11.25;;
25467;SDS011;13384;24.794;110.498;2022-12-20T00:08:09;21.63;;;11.75;;
25467;SDS011;13384;24.794;110.498;2022-12-20T00:10:41;18.98;;;11.00;;
25467;SDS011;13384;24.794;110.498;2022-12-20T00:13:13;17.60;;;11.30;;
25467;SDS011;13384;24.794;110.498;2022-12-20T00:15:44;18.40;;;11.18;;
25467;SDS011;13384;24.794;110.498;2022-12-20T00:18:14;18.30;;;10.98;;
25467;SDS011;13384;24.794;110.498;2022-12-20T00:20:45;18.80;;;10.73;;
25467;SDS011;13384;24.794;110.498;2022-12-20T00:23:32;18.85;;;10.88;;
25467;SDS011;13384;24.794;110.498;2022-12-20T00:26:24;18.55;;;11.20;;
25467;SDS011;13384;24.794;110.498;2022-12-20T00:29:17;18.83;;;10.82;;
25467;SDS011;13384;24.794;110.498;2022-12-20T00:31:48;19.25;;;11.18;;
25467;SDS011;13384;24.794;110.498;2022-12-20T00:34:19;19.10;;;11.18;;
25467;SDS011;13384;24.794;110.498;2022-12-20T00:36:51;20.23;;;11.35;;
25467;SDS011;13384;24.794;110.498;2022-12-20T00:39:21;16.98;;;10.63;;
25467;SDS011;13384;24.794;110.498;2022-12-20T00:41:52;17.85;;;11.05;;
25467;SDS011;13384;24.794;110.498;2022-12-20T00:44:22;18.23;;;10.40;;
25467;SDS011;13384;24.794;110.498;2022-12-20T00:46:53;20.55;;;11.63;;
25467;SDS011;13384;24.794;110.498;2022-12-20T00:49:27;17.92;;;11.30;;
25467;SDS011;13384;24.794;110.498;2022-12-20T00:51:57;18.52;;;10.45;;
25467;SDS011;13384;24.794;110.498;2022-12-20T00:54:28;17.33;;;10.68;;
25467;SDS011;13384;24.794;110.498;2022-12-20T00:56:59;17.75;;;10.55;;
25467;SDS011;13384;24.794;110.498;2022-12-20T00:59:32;17.98;;;10.75;;
25467;SDS011;13384;24.794;110.498;2022-12-20T01:02:03;18.60;;;10.90;;
25467;SDS011;13384;24.794;110.498;2022-12-20T01:04:54;21.20;;;11.93;;
25467;SDS011;13384;24.794;110.498;2022-12-20T01:07:24;19.40;;;10.73;;
25467;SDS011;13384;24.794;110.498;2022-12-20T01:09:56;19.42;;;11.00;;
25467;SDS011;13384;24.794;110.498;2022-12-20T01:12:29;16.63;;;11.40;;
25467;SDS011;13384;24.794;110.498;2022-12-20T01:15:01;21.75;;;11.52;;
25467;SDS011;13384;24.794;110.498;2022-12-20T01:17:32;21.90;;;11.52;;
25467;SDS011;13384;24.794;110.498;2022-12-20T01:20:03;19.55;;;11.02;;
25467;SDS011;13384;24.794;110.498;2022-12-20T01:22:35;19.60;;;10.75;;
25467;SDS011;13384;24.794;110.498;2022-12-20T01:25:14;19.02;;;10.13;;
25467;SDS011;13384;24.794;110.498;2022-12-20T01:27:48;18.45;;;10.85;;
25467;SDS011;13384;24.794;110.498;2022-12-20T01:30:18;19.25;;;11.32;;
25467;SDS011;13384;24.794;110.498;2022-12-20T01:32:49;17.70;;;10.65;;
25467;SDS011;13384;24.794;110.498;2022-12-20T01:35:22;18.60;;;11.95;;
25467;SDS011;13384;24.794;110.498;2022-12-20T01:37:54;18.02;;;11.32;;
25467;SDS011;13384;24.794;110.498;2022-12-20T01:40:25;17.98;;;10.63;;
25467;SDS011;13384;24.794;110.498;2022-12-20T01:42:55;19.42;;;10.52;;
25467;SDS011;13384;24.794;110.498;2022-12-20T01:45:27;16.50;;;10.95;;
25467;SDS011;13384;24.794;110.498;2022-12-20T01:47:59;19.47;;;11.40;;
25467;SDS011;13384;24.794;110.498;2022-12-20T01:50:29;20.42;;;11.27;;
25467;SDS011;13384;24.794;110.498;2022-12-20T01:53:02;19.33;;;11.50;;
25467;SDS011;13384;24.794;110.498;2022-12-20T01:55:55;20.02;;;10.73;;
25467;SDS011;13384;24.794;110.498;2022-12-20T01:58:29;20.60;;;10.98;;
25467;SDS011;13384;24.794;110.498;2022-12-20T02:01:01;20.30;;;11.00;;
25467;SDS011;13384;24.794;110.498;2022-12-20T02:03:31;17.02;;;11.35;;
25467;SDS011;13384;24.794;110.498;2022-12-20T02:06:15;19.27;;;10.32;;
25467;SDS011;13384;24.794;110.498;2022-12-20T02:08:56;19.70;;;10.38;;
25467;SDS011;13384;24.794;110.498;2022-12-20T02:34:19;17.70;;;10.45;;
25467;SDS011;13384;24.794;110.498;2022-12-20T02:36:53;18.05;;;10.02;;
25467;SDS011;13384;24.794;110.498;2022-12-20T02:39:23;19.65;;;10.20;;
25467;SDS011;13384;24.794;110.498;2022-12-20T02:42:03;18.13;;;10.48;;
25467;SDS011;13384;24.794;110.498;2022-12-20T02:50:25;21.38;;;10.02;;
25467;SDS011;13384;24.794;110.498;2022-12-20T02:53:05;17.48;;;10.10;;
25467;SDS011;13384;24.794;110.498;2022-12-20T02:55:40;15.87;;;10.03;;
25467;SDS011;13384;24.794;110.498;2022-12-20T02:58:27;19.23;;;10.75;;
25467;SDS011;13384;24.794;110.498;2022-12-20T03:01:10;18.33;;;10.50;;
25467;SDS011;13384;24.794;110.498;2022-12-20T03:03:48;16.23;;;10.45;;
25467;SDS011;13384;24.794;110.498;2022-12-20T03:06:20;20.80;;;10.55;;
25467;SDS011;13384;24.794;110.498;2022-12-20T03:08:51;15.77;;;10.63;;
25467;SDS011;13384;24.794;110.498;2022-12-20T03:11:24;17.80;;;10.05;;
25467;SDS011;13384;24.794;110.498;2022-12-20T03:13:56;18.20;;;10.25;;
25467;SDS011;13384;24.794;110.498;2022-12-20T03:16:26;17.85;;;10.75;;
25467;SDS011;13384;24.794;110.498;2022-12-20T03:18:57;18.98;;;10.95;;
25467;SDS011;13384;24.794;110.498;2022-12-20T03:21:28;19.25;;;9.98;;
25467;SDS011;13384;24.794;110.498;2022-12-20T03:24:01;17.42;;;10.30;;
25467;SDS011;13384;24.794;110.498;2022-12-20T03:26:33;15.48;;;9.95;;
25467;SDS011;13384;24.794;110.498;2022-12-20T03:29:08;15.25;;;10.32;;
25467;SDS011;13384;24.794;110.498;2022-12-20T03:31:39;16.10;;;9.75;;
25467;SDS011;13384;24.794;110.498;2022-12-20T03:34:10;17.27;;;9.85;;
25467;SDS011;13384;24.794;110.498;2022-12-20T03:36:43;17.58;;;10.38;;
25467;SDS011;13384;24.794;110.498;2022-12-20T03:39:13;16.75;;;10.65;;
25467;SDS011;13384;24.794;110.498;2022-12-20T03:41:45;19.63;;;10.55;;
25467;SDS011;13384;24.794;110.498;2022-12-20T03:44:18;16.13;;;10.25;;
25467;SDS011;13384;24.794;110.498;2022-12-20T03:47:28;17.23;;;10.50;;
25467;SDS011;13384;24.794;110.498;2022-12-20T03:50:03;19.00;;;10.93;;
25467;SDS011;13384;24.794;110.498;2022-12-20T03:52:35;17.20;;;10.35;;
25467;SDS011;13384;24.794;110.498;2022-12-20T03:55:07;14.10;;;10.15;;
25467;SDS011;13384;24.794;110.498;2022-12-20T03:57:40;17.88;;;9.98;;
25467;SDS011;13384;24.794;110.498;2022-12-20T04:00:36;14.63;;;9.77;;
25467;SDS011;13384;24.794;110.498;2022-12-20T04:03:44;16.13;;;10.18;;
25467;SDS011;13384;24.794;110.498;2022-12-20T04:06:15;18.35;;;10.38;;
25467;SDS011;13384;24.794;110.498;2022-12-20T04:08:47;17.50;;;10.95;;
25467;SDS011;13384;24.794;110.498;2022-12-20T04:11:26;17.60;;;11.88;;
25467;SDS011;13384;24.794;110.498;2022-12-20T04:14:13;21.02;;;12.35;;
25467;SDS011;13384;24.794;110.498;2022-12-20T04:16:45;21.48;;;13.52;;
25467;SDS011;13384;24.794;110.498;2022-12-20T04:19:18;21.38;;;12.70;;
25467;SDS011;13384;24.794;110.498;2022-12-20T04:21:49;21.23;;;13.73;;
25467;SDS011;13384;24.794;110.498;2022-12-20T04:24:23;18.98;;;12.02;;
25467;SDS011;13384;24.794;110.498;2022-12-20T04:27:14;20.63;;;12.38;;
25467;SDS011;13384;24.794;110.498;2022-12-20T04:29:45;19.38;;;12.43;;
25467;SDS011;13384;24.794;110.498;2022-12-20T04:32:17;23.77;;;13.00;;
25467;SDS011;13384;24.794;110.498;2022-12-20T04:34:49;23.35;;;13.63;;
25467;SDS011;13384;24.794;110.498;2022-12-20T04:37:20;19.63;;;12.65;;
25467;SDS011;13384;24.794;110.498;2022-12-20T04:39:53;20.38;;;12.95;;
25467;SDS011;13384;24.794;110.498;2022-12-20T04:42:31;23.70;;;13.98;;
25467;SDS011;13384;24.794;110.498;2022-12-20T04:45:08;19.65;;;12.57;;
25467;SDS011;13384;24.794;110.498;2022-12-20T04:47:42;24.38;;;14.23;;
25467;SDS011;13384;24.794;110.498;2022-12-20T04:50:16;21.17;;;13.15;;
25467;SDS011;13384;24.794;110.498;2022-12-20T04:52:47;26.05;;;13.70;;
25467;SDS011;13384;24.794;110.498;2022-12-20T04:55:36;22.73;;;14.50;;
25467;SDS011;13384;24.794;110.498;2022-12-20T04:58:08;23.73;;;14.15;;
25467;SDS011;13384;24.794;110.498;2022-12-20T05:00:41;23.23;;;14.23;;
25467;SDS011;13384;24.794;110.498;2022-12-20T05:03:37;20.70;;;13.40;;
25467;SDS011;13384;24.794;110.498;2022-12-20T05:06:09;21.42;;;13.25;;
25467;SDS011;13384;24.794;110.498;2022-12-20T05:08:41;20.08;;;12.27;;
25467;SDS011;13384;24.794;110.498;2022-12-20T05:11:11;23.00;;;13.05;;
25467;SDS011;13384;24.794;110.498;2022-12-20T05:13:55;20.60;;;13.07;;
25467;SDS011;13384;24.794;110.498;2022-12-20T05:16:26;23.65;;;13.05;;
25467;SDS011;13384;24.794;110.498;2022-12-20T05:19:01;19.13;;;12.55;;
25467;SDS011;13384;24.794;110.498;2022-12-20T05:21:38;26.45;;;12.45;;
25467;SDS011;13384;24.794;110.498;2022-12-20T05:24:36;23.08;;;13.43;;
25467;SDS011;13384;24.794;110.498;2022-12-20T05:27:32;20.70;;;12.10;;
25467;SDS011;13384;24.794;110.498;2022-12-20T05:30:04;20.38;;;12.48;;
25467;SDS011;13384;24.794;110.498;2022-12-20T05:32:54;21.17;;;12.00;;
25467;SDS011;13384;24.794;110.498;2022-12-20T05:35:27;22.00;;;12.57;;
25467;SDS011;13384;24.794;110.498;2022-12-20T05:38:05;20.05;;;12.90;;
25467;SDS011;13384;24.794;110.498;2022-12-20T05:40:36;20.70;;;13.07;;
25467;SDS011;13384;24.794;110.498;2022-12-20T05:43:11;20.15;;;11.63;;
25467;SDS011;13384;24.794;110.498;2022-12-20T05:48:28;19.67;;;12.48;;
25467;SDS011;13384;24.794;110.498;2022-12-20T05:51:04;22.75;;;13.05;;
25467;SDS011;13384;24.794;110.498;2022-12-20T05:53:48;18.63;;;12.27;;
25467;SDS011;13384;24.794;110.498;2022-12-20T05:56:25;20.98;;;13.20;;
25467;SDS011;13384;24.794;110.498;2022-12-20T05:58:58;21.48;;;12.35;;
25467;SDS011;13384;24.794;110.498;2022-12-20T06:01:29;21.83;;;12.40;;
25467;SDS011;13384;24.794;110.498;2022-12-20T06:04:01;21.75;;;12.63;;
25467;SDS011;13384;24.794;110.498;2022-12-20T06:06:32;19.52;;;12.25;;
25467;SDS011;13384;24.794;110.498;2022-12-20T06:09:04;22.17;;;13.18;;
25467;SDS011;13384;24.794;110.498;2022-12-20T06:11:41;19.70;;;12.70;;
25467;SDS011;13384;24.794;110.498;2022-12-20T06:14:14;20.80;;;12.93;;
25467;SDS011;13384;24.794;110.498;2022-12-20T06:16:47;18.33;;;11.82;;
25467;SDS011;13384;24.794;110.498;2022-12-20T06:19:21;21.65;;;12.60;;
25467;SDS011;13384;24.794;110.498;2022-12-20T06:21:54;20.95;;;12.43;;
25467;SDS011;13384;24.794;110.498;2022-12-20T06:24:32;21.38;;;12.18;;
25467;SDS011;13384;24.794;110.498;2022-12-20T06:27:19;21.20;;;12.68;;
25467;SDS011;13384;24.794;110.498;2022-12-20T06:30:03;21.10;;;12.27;;
25467;SDS011;13384;24.794;110.498;2022-12-20T06:33:05;19.63;;;12.27;;
25467;SDS011;13384;24.794;110.498;2022-12-20T06:35:39;19.77;;;12.60;;
25467;SDS011;13384;24.794;110.498;2022-12-20T06:38:13;20.17;;;12.25;;
25467;SDS011;13384;24.794;110.498;2022-12-20T06:40:44;17.73;;;11.70;;
25467;SDS011;13384;24.794;110.498;2022-12-20T06:43:20;22.90;;;12.70;;
25467;SDS011;13384;24.794;110.498;2022-12-20T06:45:51;22.52;;;12.43;;
25467;SDS011;13384;24.794;110.498;2022-12-20T06:48:21;21.63;;;11.90;;
25467;SDS011;13384;24.794;110.498;2022-12-20T06:50:52;22.92;;;12.73;;
25467;SDS011;13384;24.794;110.498;2022-12-20T06:53:26;21.88;;;12.38;;
25467;SDS011;13384;24.794;110.498;2022-12-20T06:56:01;20.58;;;11.57;;
25467;SDS011;13384;24.794;110.498;2022-12-20T06:58:33;20.45;;;12.60;;
25467;SDS011;13384;24.794;110.498;2022-12-20T07:01:07;21.63;;;12.73;;
25467;SDS011;13384;24.794;110.498;2022-12-20T07:03:38;25.13;;;12.60;;
25467;SDS011;13384;24.794;110.498;2022-12-20T07:06:08;19.88;;;12.50;;
25467;SDS011;13384;24.794;110.498;2022-12-20T07:08:46;24.23;;;11.93;;
25467;SDS011;13384;24.794;110.498;2022-12-20T07:11:21;19.85;;;12.43;;
25467;SDS011;13384;24.794;110.498;2022-12-20T07:13:56;25.50;;;12.75;;
25467;SDS011;13384;24.794;110.498;2022-12-20T07:16:30;22.33;;;13.05;;
25467;SDS011;13384;24.794;110.498;2022-12-20T07:19:02;21.75;;;12.18;;
25467;SDS011;13384;24.794;110.498;2022-12-20T07:21:33;22.08;;;12.32;;
25467;SDS011;13384;24.794;110.498;2022-12-20T07:24:07;20.42;;;12.13;;
25467;SDS011;13384;24.794;110.498;2022-12-20T07:26:46;22.77;;;12.50;;
25467;SDS011;13384;24.794;110.498;2022-12-20T07:29:17;21.10;;;12.40;;
25467;SDS011;13384;24.794;110.498;2022-12-20T07:32:08;29.00;;;14.77;;
25467;SDS011;13384;24.794;110.498;2022-12-20T07:34:40;22.15;;;12.23;;
25467;SDS011;13384;24.794;110.498;2022-12-20T07:37:10;21.25;;;11.85;;
25467;SDS011;13384;24.794;110.498;2022-12-20T07:39:41;21.45;;;12.60;;
25467;SDS011;13384;24.794;110.498;2022-12-20T07:42:11;21.67;;;13.82;;
25467;SDS011;13384;24.794;110.498;2022-12-20T07:44:49;28.50;;;15.07;;
25467;SDS011;13384;24.794;110.498;2022-12-20T07:47:39;24.77;;;14.15;;
25467;SDS011;13384;24.794;110.498;2022-12-20T07:50:11;25.42;;;14.02;;
25467;SDS011;13384;24.794;110.498;2022-12-20T07:52:42;27.52;;;13.73;;
25467;SDS011;13384;24.794;110.498;2022-12-20T07:55:22;22.40;;;13.05;;
25467;SDS011;13384;24.794;110.498;2022-12-20T07:57:55;26.40;;;14.40;;
25467;SDS011;13384;24.794;110.498;2022-12-20T08:00:34;22.23;;;13.20;;
25467;SDS011;13384;24.794;110.498;2022-12-20T08:03:10;26.40;;;13.48;;
25467;SDS011;13384;24.794;110.498;2022-12-20T08:05:49;24.95;;;14.80;;
25467;SDS011;13384;24.794;110.498;2022-12-20T08:08:25;22.60;;;14.40;;
25467;SDS011;13384;24.794;110.498;2022-12-20T08:11:00;23.38;;;13.48;;
25467;SDS011;13384;24.794;110.498;2022-12-20T08:13:36;27.77;;;14.65;;
25467;SDS011;13384;24.794;110.498;2022-12-20T08:16:13;24.33;;;13.98;;
25467;SDS011;13384;24.794;110.498;2022-12-20T08:18:44;23.83;;;13.40;;
25467;SDS011;13384;24.794;110.498;2022-12-20T08:21:15;23.13;;;12.80;;
25467;SDS011;13384;24.794;110.498;2022-12-20T08:23:50;23.95;;;14.07;;
25467;SDS011;13384;24.794;110.498;2022-12-20T08:26:21;26.13;;;14.27;;
25467;SDS011;13384;24.794;110.498;2022-12-20T08:28:53;26.05;;;13.48;;
25467;SDS011;13384;24.794;110.498;2022-12-20T08:31:23;22.08;;;13.20;;
25467;SDS011;13384;24.794;110.498;2022-12-20T08:33:54;24.45;;;14.02;;
25467;SDS011;13384;24.794;110.498;2022-12-20T08:36:24;23.35;;;13.15;;
25467;SDS011;13384;24.794;110.498;2022-12-20T08:38:55;23.88;;;13.25;;
25467;SDS011;13384;24.794;110.498;2022-12-20T08:41:25;23.70;;;14.18;;
25467;SDS011;13384;24.794;110.498;2022-12-20T08:43:59;23.70;;;13.02;;
25467;SDS011;13384;24.794;110.498;2022-12-20T08:46:29;24.42;;;13.98;;
25467;SDS011;13384;24.794;110.498;2022-12-20T08:49:00;24.70;;;13.02;;
25467;SDS011;13384;24.794;110.498;2022-12-20T08:51:33;24.50;;;13.40;;
25467;SDS011;13384;24.794;110.498;2022-12-20T08:54:04;22.83;;;13.00;;
25467;SDS011;13384;24.794;110.498;2022-12-20T08:56:39;23.52;;;13.57;;
25467;SDS011;13384;24.794;110.498;2022-12-20T08:59:09;25.80;;;14.35;;
25467;SDS011;13384;24.794;110.498;2022-12-20T09:01:40;25.50;;;13.98;;
25467;SDS011;13384;24.794;110.498;2022-12-20T09:04:11;28.00;;;14.35;;
25467;SDS011;13384;24.794;110.498;2022-12-20T09:06:43;24.33;;;13.43;;
25467;SDS011;13384;24.794;110.498;2022-12-20T09:09:13;23.42;;;13.13;;
25467;SDS011;13384;24.794;110.498;2022-12-20T09:11:46;23.75;;;14.25;;
25467;SDS011;13384;24.794;110.498;2022-12-20T09:14:22;24.70;;;14.52;;
25467;SDS011;13384;24.794;110.498;2022-12-20T09:16:52;22.02;;;13.07;;
25467;SDS011;13384;24.794;110.498;2022-12-20T09:19:23;26.20;;;13.95;;
25467;SDS011;13384;24.794;110.498;2022-12-20T09:21:59;24.33;;;13.98;;
25467;SDS011;13384;24.794;110.498;2022-12-20T09:24:30;24.40;;;13.80;;
25467;SDS011;13384;24.794;110.498;2022-12-20T09:27:02;28.27;;;14.43;;
25467;SDS011;13384;24.794;110.498;2022-12-20T09:29:36;24.02;;;13.25;;
25467;SDS011;13384;24.794;110.498;2022-12-20T09:32:06;23.10;;;13.90;;
25467;SDS011;13384;24.794;110.498;2022-12-20T09:34:37;24.30;;;14.00;;
25467;SDS011;13384;24.794;110.498;2022-12-20T09:37:31;24.83;;;13.80;;
25467;SDS011;13384;24.794;110.498;2022-12-20T09:40:08;20.23;;;13.35;;
25467;SDS011;13384;24.794;110.498;2022-12-20T09:42:49;29.05;;;13.55;;
25467;SDS011;13384;24.794;110.498;2022-12-20T09:45:26;25.83;;;13.70;;
25467;SDS011;13384;24.794;110.498;2022-12-20T09:48:00;23.95;;;14.35;;
25467;SDS011;13384;24.794;110.498;2022-12-20T09:53:39;21.98;;;13.27;;
25467;SDS011;13384;24.794;110.498;2022-12-20T09:56:38;29.52;;;14.80;;
25467;SDS011;13384;24.794;110.498;2022-12-20T09:59:36;26.45;;;14.32;;
25467;SDS011;13384;24.794;110.498;2022-12-20T10:02:21;24.98;;;13.68;;
25467;SDS011;13384;24.794;110.498;2022-12-20T10:05:21;25.65;;;14.85;;
25467;SDS011;13384;24.794;110.498;2022-12-20T10:11:31;25.85;;;14.85;;
25467;SDS011;13384;24.794;110.498;2022-12-20T10:17:13;26.30;;;14.55;;
25467;SDS011;13384;24.794;110.498;2022-12-20T10:26:10;25.77;;;14.88;;
25467;SDS011;13384;24.794;110.498;2022-12-20T10:28:41;27.48;;;14.88;;
25467;SDS011;13384;24.794;110.498;2022-12-20T10:31:21;25.63;;;15.77;;
25467;SDS011;13384;24.794;110.498;2022-12-20T10:33:52;27.52;;;15.10;;
25467;SDS011;13384;24.794;110.498;2022-12-20T10:39:03;30.13;;;14.80;;
25467;SDS011;13384;24.794;110.498;2022-12-20T10:46:59;29.58;;;16.52;;
25467;SDS011;13384;24.794;110.498;2022-12-20T10:54:42;34.10;;;18.25;;
25467;SDS011;13384;24.794;110.498;2022-12-20T10:57:18;33.67;;;17.85;;
25467;SDS011;13384;24.794;110.498;2022-12-20T10:59:55;32.30;;;16.95;;
25467;SDS011;13384;24.794;110.498;2022-12-20T11:02:34;31.35;;;17.15;;
25467;SDS011;13384;24.794;110.498;2022-12-20T11:10:45;29.65;;;16.20;;
25467;SDS011;13384;24.794;110.498;2022-12-20T11:13:25;30.55;;;17.05;;
25467;SDS011;13384;24.794;110.498;2022-12-20T11:15:57;30.40;;;17.20;;
25467;SDS011;13384;24.794;110.498;2022-12-20T11:27:15;31.23;;;16.08;;
25467;SDS011;13384;24.794;110.498;2022-12-20T11:30:02;31.30;;;16.92;;
25467;SDS011;13384;24.794;110.498;2022-12-20T11:41:26;34.95;;;16.77;;
25467;SDS011;13384;24.794;110.498;2022-12-20T11:47:43;35.85;;;16.88;;
25467;SDS011;13384;24.794;110.498;2022-12-20T11:51:08;40.47;;;19.23;;
25467;SDS011;13384;24.794;110.498;2022-12-20T11:54:02;34.72;;;18.23;;
25467;SDS011;13384;24.794;110.498;2022-12-20T11:56:36;37.78;;;18.45;;
25467;SDS011;13384;24.794;110.498;2022-12-20T11:59:26;32.10;;;18.25;;
25467;SDS011;13384;24.794;110.498;2022-12-20T12:02:27;30.30;;;18.02;;
25467;SDS011;13384;24.794;110.498;2022-12-20T12:05:39;33.70;;;18.30;;
25467;SDS011;13384;24.794;110.498;2022-12-20T12:09:14;34.92;;;19.15;;
25467;SDS011;13384;24.794;110.498;2022-12-20T12:12:07;37.20;;;18.48;;
25467;SDS011;13384;24.794;110.498;2022-12-20T12:17:37;34.97;;;19.67;;
25467;SDS011;13384;24.794;110.498;2022-12-20T12:26:31;36.25;;;18.27;;
25467;SDS011;13384;24.794;110.498;2022-12-20T12:29:12;36.08;;;19.00;;
25467;SDS011;13384;24.794;110.498;2022-12-20T12:31:51;37.63;;;18.58;;
25467;SDS011;13384;24.794;110.498;2022-12-20T12:37:44;34.22;;;18.48;;
25467;SDS011;13384;24.794;110.498;2022-12-20T12:40:29;33.15;;;17.92;;
25467;SDS011;13384;24.794;110.498;2022-12-20T12:51:34;38.33;;;18.70;;
25467;SDS011;13384;24.794;110.498;2022-12-20T12:56:46;37.90;;;18.63;;
25467;SDS011;13384;24.794;110.498;2022-12-20T12:59:22;33.08;;;17.95;;
25467;SDS011;13384;24.794;110.498;2022-12-20T13:23:47;38.00;;;20.05;;
25467;SDS011;13384;24.794;110.498;2022-12-20T13:35:26;34.75;;;19.40;;
25467;SDS011;13384;24.794;110.498;2022-12-20T13:40:40;36.90;;;19.48;;
25467;SDS011;13384;24.794;110.498;2022-12-20T13:46:18;32.80;;;18.98;;
25467;SDS011;13384;24.794;110.498;2022-12-20T13:49:04;35.75;;;18.80;;
25467;SDS011;13384;24.794;110.498;2022-12-20T13:51:46;34.58;;;18.73;;
25467;SDS011;13384;24.794;110.498;2022-12-20T13:54:17;34.05;;;18.90;;
25467;SDS011;13384;24.794;110.498;2022-12-20T13:57:00;32.33;;;18.83;;
25467;SDS011;13384;24.794;110.498;2022-12-20T13:59:35;35.17;;;18.83;;
25467;SDS011;13384;24.794;110.498;2022-12-20T14:02:15;36.15;;;19.27;;
25467;SDS011;13384;24.794;110.498;2022-12-20T14:05:00;35.13;;;19.13;;
25467;SDS011;13384;24.794;110.498;2022-12-20T14:07:39;37.55;;;19.38;;
25467;SDS011;13384;24.794;110.498;2022-12-20T14:10:22;33.25;;;18.08;;
25467;SDS011;13384;24.794;110.498;2022-12-20T14:15:31;34.67;;;18.67;;
25467;SDS011;13384;24.794;110.498;2022-12-20T14:18:04;36.30;;;19.65;;
25467;SDS011;13384;24.794;110.498;2022-12-20T14:20:57;33.95;;;18.13;;
25467;SDS011;13384;24.794;110.498;2022-12-20T14:23:35;34.22;;;18.33;;
25467;SDS011;13384;24.794;110.498;2022-12-20T14:26:11;39.88;;;19.30;;
25467;SDS011;13384;24.794;110.498;2022-12-20T14:29:11;34.72;;;18.98;;
25467;SDS011;13384;24.794;110.498;2022-12-20T14:31:48;32.22;;;18.45;;
25467;SDS011;13384;24.794;110.498;2022-12-20T14:34:28;37.65;;;19.10;;
25467;SDS011;13384;24.794;110.498;2022-12-20T14:37:26;36.38;;;19.48;;
25467;SDS011;13384;24.794;110.498;2022-12-20T14:42:40;35.63;;;18.80;;
25467;SDS011;13384;24.794;110.498;2022-12-20T14:47:53;36.92;;;19.80;;
25467;SDS011;13384;24.794;110.498;2022-12-20T14:50:27;37.28;;;19.45;;
25467;SDS011;13384;24.794;110.498;2022-12-20T14:53:16;35.10;;;18.83;;
25467;SDS011;13384;24.794;110.498;2022-12-20T14:55:56;35.17;;;19.52;;
25467;SDS011;13384;24.794;110.498;2022-12-20T14:58:28;34.03;;;18.73;;
25467;SDS011;13384;24.794;110.498;2022-12-20T15:03:58;34.38;;;18.63;;
25467;SDS011;13384;24.794;110.498;2022-12-20T15:06:38;32.95;;;19.20;;
25467;SDS011;13384;24.794;110.498;2022-12-20T15:09:14;36.88;;;19.17;;
25467;SDS011;13384;24.794;110.498;2022-12-20T15:11:48;33.67;;;19.23;;
25467;SDS011;13384;24.794;110.498;2022-12-20T15:14:33;34.83;;;18.60;;
25467;SDS011;13384;24.794;110.498;2022-12-20T15:17:10;35.15;;;19.50;;
25467;SDS011;13384;24.794;110.498;2022-12-20T15:19:48;34.95;;;19.08;;
25467;SDS011;13384;24.794;110.498;2022-12-20T15:22:23;35.17;;;19.02;;
25467;SDS011;13384;24.794;110.498;2022-12-20T15:24:54;33.45;;;18.98;;
25467;SDS011;13384;24.794;110.498;2022-12-20T15:27:38;33.45;;;17.90;;
25467;SDS011;13384;24.794;110.498;2022-12-20T15:30:12;37.33;;;19.63;;
25467;SDS011;13384;24.794;110.498;2022-12-20T15:32:43;33.30;;;18.63;;
25467;SDS011;13384;24.794;110.498;2022-12-20T15:35:22;34.88;;;19.27;;
25467;SDS011;13384;24.794;110.498;2022-12-20T15:37:53;36.38;;;19.55;;
25467;SDS011;13384;24.794;110.498;2022-12-20T15:40:24;36.90;;;19.38;;
25467;SDS011;13384;24.794;110.498;2022-12-20T15:42:56;35.97;;;19.33;;
25467;SDS011;13384;24.794;110.498;2022-12-20T15:48:03;38.45;;;20.08;;
25467;SDS011;13384;24.794;110.498;2022-12-20T15:50:41;35.30;;;18.67;;
25467;SDS011;13384;24.794;110.498;2022-12-20T15:53:17;37.78;;;19.35;;
25467;SDS011;13384;24.794;110.498;2022-12-20T15:55:56;38.45;;;20.38;;
25467;SDS011;13384;24.794;110.498;2022-12-20T15:58:27;39.03;;;19.35;;
25467;SDS011;13384;24.794;110.498;2022-12-20T16:01:02;38.80;;;20.05;;
25467;SDS011;13384;24.794;110.498;2022-12-20T16:03:40;35.83;;;19.08;;
25467;SDS011;13384;24.794;110.498;2022-12-20T16:06:12;36.05;;;19.08;;
25467;SDS011;13384;24.794;110.498;2022-12-20T16:08:44;33.10;;;19.65;;
25467;SDS011;13384;24.794;110.498;2022-12-20T16:11:22;32.47;;;19.40;;
25467;SDS011;13384;24.794;110.498;2022-12-20T16:13:56;35.38;;;19.13;;
25467;SDS011;13384;24.794;110.498;2022-12-20T16:16:31;38.70;;;19.65;;
25467;SDS011;13384;24.794;110.498;2022-12-20T16:19:03;35.10;;;19.30;;
25467;SDS011;13384;24.794;110.498;2022-12-20T16:21:34;33.88;;;18.58;;
25467;SDS011;13384;24.794;110.498;2022-12-20T16:24:17;37.63;;;18.50;;
25467;SDS011;13384;24.794;110.498;2022-12-20T16:26:52;31.48;;;17.67;;
25467;SDS011;13384;24.794;110.498;2022-12-20T16:29:23;31.80;;;18.08;;
25467;SDS011;13384;24.794;110.498;2022-12-20T16:31:54;35.35;;;19.15;;
25467;SDS011;13384;24.794;110.498;2022-12-20T16:34:24;32.75;;;18.48;;
25467;SDS011;13384;24.794;110.498;2022-12-20T16:36:55;38.35;;;19.65;;
25467;SDS011;13384;24.794;110.498;2022-12-20T16:39:27;37.20;;;20.20;;
25467;SDS011;13384;24.794;110.498;2022-12-20T16:42:14;36.80;;;20.33;;
25467;SDS011;13384;24.794;110.498;2022-12-20T16:44:50;40.17;;;20.73;;
25467;SDS011;13384;24.794;110.498;2022-12-20T16:47:22;39.28;;;20.27;;
25467;SDS011;13384;24.794;110.498;2022-12-20T16:49:53;33.80;;;19.23;;
25467;SDS011;13384;24.794;110.498;2022-12-20T16:52:24;33.70;;;18.80;;
25467;SDS011;13384;24.794;110.498;2022-12-20T16:54:55;35.63;;;19.85;;
25467;SDS011;13384;24.794;110.498;2022-12-20T16:57:26;34.95;;;20.15;;
25467;SDS011;13384;24.794;110.498;2022-12-20T16:59:56;37.15;;;19.67;;
25467;SDS011;13384;24.794;110.498;2022-12-20T17:02:29;40.50;;;18.90;;
25467;SDS011;13384;24.794;110.498;2022-12-20T17:07:44;37.03;;;19.17;;
25467;SDS011;13384;24.794;110.498;2022-12-20T17:10:14;36.70;;;19.25;;
25467;SDS011;13384;24.794;110.498;2022-12-20T17:12:58;36.95;;;18.50;;
25467;SDS011;13384;24.794;110.498;2022-12-20T17:15:29;37.78;;;19.48;;
25467;SDS011;13384;24.794;110.498;2022-12-20T17:18:02;35.05;;;19.58;;
25467;SDS011;13384;24.794;110.498;2022-12-20T17:20:34;37.15;;;19.77;;
25467;SDS011;13384;24.794;110.498;2022-12-20T17:23:25;34.80;;;19.00;;
25467;SDS011;13384;24.794;110.498;2022-12-20T17:26:13;35.47;;;19.70;;
25467;SDS011;13384;24.794;110.498;2022-12-20T17:28:51;35.63;;;19.90;;
25467;SDS011;13384;24.794;110.498;2022-12-20T17:31:32;35.75;;;19.27;;